sensor_id;sensor_type;location;lat;lon;timestamp;temperature;humidity
65995;HTU21D;52764;51.036;5.852;2023-07-31T00:00:27;19.60;76.28
65995;HTU21D;52764;51.036;5.852;2023-07-31T00:02:52;19.63;76.10
65995;HTU21D;52764;51.036;5.852;2023-07-31T00:05:18;19.65;75.83
65995;HTU21D;52764;51.036;5.852;2023-07-31T00:07:44;19.63;75.83
65995;HTU21D;52764;51.036;5.852;2023-07-31T00:10:09;19.62;75.84
65995;HTU21D;52764;51.036;5.852;2023-07-31T00:12:35;19.62;75.84
65995;HTU21D;52764;51.036;5.852;2023-07-31T00:15:02;19.61;75.87
65995;HTU21D;52764;51.036;5.852;2023-07-31T00:17:28;19.62;75.75
65995;HTU21D;52764;51.036;5.852;2023-07-31T00:19:53;19.65;75.57
65995;HTU21D;52764;51.036;5.852;2023-07-31T00:22:19;19.66;75.48
65995;HTU21D;52764;51.036;5.852;2023-07-31T00:24:45;19.63;75.43
65995;HTU21D;52764;51.036;5.852;2023-07-31T00:27:11;19.63;75.35
65995;HTU21D;52764;51.036;5.852;2023-07-31T00:29:36;19.58;75.41
65995;HTU21D;52764;51.036;5.852;2023-07-31T00:32:04;19.56;75.30
65995;HTU21D;52764;51.036;5.852;2023-07-31T00:34:29;19.54;75.42
65995;HTU21D;52764;51.036;5.852;2023-07-31T00:36:55;19.50;75.37
65995;HTU21D;52764;51.036;5.852;2023-07-31T00:39:21;19.43;75.40
65995;HTU21D;52764;51.036;5.852;2023-07-31T00:41:46;19.33;75.71
65995;HTU21D;52764;51.036;5.852;2023-07-31T00:44:12;19.29;75.89
65995;HTU21D;52764;51.036;5.852;2023-07-31T00:46:38;19.24;75.84
65995;HTU21D;52764;51.036;5.852;2023-07-31T00:49:05;19.20;79.79
65995;HTU21D;52764;51.036;5.852;2023-07-31T00:51:31;19.18;75.90
65995;HTU21D;52764;51.036;5.852;2023-07-31T00:53:57;19.15;76.12
65995;HTU21D;52764;51.036;5.852;2023-07-31T00:56:24;19.13;76.21
65995;HTU21D;52764;51.036;5.852;2023-07-31T00:58:50;19.13;76.12
65995;HTU21D;52764;51.036;5.852;2023-07-31T01:01:16;19.11;76.21
65995;HTU21D;52764;51.036;5.852;2023-07-31T01:03:42;19.11;76.30
65995;HTU21D;52764;51.036;5.852;2023-07-31T01:06:18;19.12;76.41
65995;HTU21D;52764;51.036;5.852;2023-07-31T01:11:41;19.30;75.93
65995;HTU21D;52764;51.036;5.852;2023-07-31T01:14:08;19.37;75.71
65995;HTU21D;52764;51.036;5.852;2023-07-31T01:16:34;19.42;75.47
65995;HTU21D;52764;51.036;5.852;2023-07-31T01:19:00;19.47;75.47
65995;HTU21D;52764;51.036;5.852;2023-07-31T01:24:20;19.50;75.17
65995;HTU21D;52764;51.036;5.852;2023-07-31T01:26:59;19.45;75.31
65995;HTU21D;52764;51.036;5.852;2023-07-31T01:30:05;19.47;75.39
65995;HTU21D;52764;51.036;5.852;2023-07-31T01:32:40;19.51;75.39
65995;HTU21D;52764;51.036;5.852;2023-07-31T01:35:07;19.52;75.50
65995;HTU21D;52764;51.036;5.852;2023-07-31T01:37:33;19.51;75.54
65995;HTU21D;52764;51.036;5.852;2023-07-31T01:39:59;19.51;75.63
65995;HTU21D;52764;51.036;5.852;2023-07-31T01:42:25;19.51;75.67
65995;HTU21D;52764;51.036;5.852;2023-07-31T01:44:50;19.50;75.78
65995;HTU21D;52764;51.036;5.852;2023-07-31T01:47:16;19.51;75.81
65995;HTU21D;52764;51.036;5.852;2023-07-31T01:49:42;19.53;75.78
65995;HTU21D;52764;51.036;5.852;2023-07-31T01:52:07;19.53;75.86
65995;HTU21D;52764;51.036;5.852;2023-07-31T01:54:33;19.56;75.78
65995;HTU21D;52764;51.036;5.852;2023-07-31T01:56:59;19.59;75.75
65995;HTU21D;52764;51.036;5.852;2023-07-31T01:59:25;19.58;75.86
65995;HTU21D;52764;51.036;5.852;2023-07-31T02:01:50;19.62;75.74
65995;HTU21D;52764;51.036;5.852;2023-07-31T02:04:16;19.63;75.70
65995;HTU21D;52764;51.036;5.852;2023-07-31T02:06:43;19.63;75.69
65995;HTU21D;52764;51.036;5.852;2023-07-31T02:09:09;19.68;75.67
65995;HTU21D;52764;51.036;5.852;2023-07-31T02:11:34;19.69;75.60
65995;HTU21D;52764;51.036;5.852;2023-07-31T02:14:00;19.67;75.63
65995;HTU21D;52764;51.036;5.852;2023-07-31T02:16:26;19.66;75.64
65995;HTU21D;52764;51.036;5.852;2023-07-31T02:18:51;19.65;75.62
65995;HTU21D;52764;51.036;5.852;2023-07-31T02:21:17;19.62;75.60
65995;HTU21D;52764;51.036;5.852;2023-07-31T02:23:43;19.62;75.60
65995;HTU21D;52764;51.036;5.852;2023-07-31T02:26:08;19.61;75.54
65995;HTU21D;52764;51.036;5.852;2023-07-31T02:28:34;19.59;75.55
65995;HTU21D;52764;51.036;5.852;2023-07-31T02:31:00;19.63;75.50
65995;HTU21D;52764;51.036;5.852;2023-07-31T02:33:25;19.65;75.44
65995;HTU21D;52764;51.036;5.852;2023-07-31T02:35:51;19.66;75.27
65995;HTU21D;52764;51.036;5.852;2023-07-31T02:38:17;19.68;75.31
65995;HTU21D;52764;51.036;5.852;2023-07-31T02:40:43;19.68;75.29
65995;HTU21D;52764;51.036;5.852;2023-07-31T02:43:09;19.71;75.28
65995;HTU21D;52764;51.036;5.852;2023-07-31T02:45:35;19.70;75.28
65995;HTU21D;52764;51.036;5.852;2023-07-31T02:48:01;19.73;75.26
65995;HTU21D;52764;51.036;5.852;2023-07-31T02:50:26;19.74;75.14
65995;HTU21D;52764;51.036;5.852;2023-07-31T02:52:55;19.76;75.16
65995;HTU21D;52764;51.036;5.852;2023-07-31T02:55:21;19.75;75.25
65995;HTU21D;52764;51.036;5.852;2023-07-31T02:57:46;19.75;75.34
65995;HTU21D;52764;51.036;5.852;2023-07-31T03:00:13;19.74;75.34
65995;HTU21D;52764;51.036;5.852;2023-07-31T03:02:38;19.71;75.60
65995;HTU21D;52764;51.036;5.852;2023-07-31T03:05:04;19.65;75.82
65995;HTU21D;52764;51.036;5.852;2023-07-31T03:07:30;19.62;75.95
65995;HTU21D;52764;51.036;5.852;2023-07-31T03:09:56;19.61;76.02
65995;HTU21D;52764;51.036;5.852;2023-07-31T03:12:22;19.61;76.14
65995;HTU21D;52764;51.036;5.852;2023-07-31T03:14:47;19.63;76.03
65995;HTU21D;52764;51.036;5.852;2023-07-31T03:17:13;19.66;75.92
65995;HTU21D;52764;51.036;5.852;2023-07-31T03:19:39;19.65;76.03
65995;HTU21D;52764;51.036;5.852;2023-07-31T03:22:05;19.66;75.97
65995;HTU21D;52764;51.036;5.852;2023-07-31T03:24:30;19.66;75.95
65995;HTU21D;52764;51.036;5.852;2023-07-31T03:26:56;19.67;75.96
65995;HTU21D;52764;51.036;5.852;2023-07-31T03:29:22;19.72;75.93
65995;HTU21D;52764;51.036;5.852;2023-07-31T03:31:47;19.73;75.76
65995;HTU21D;52764;51.036;5.852;2023-07-31T03:34:13;19.72;75.79
65995;HTU21D;52764;51.036;5.852;2023-07-31T03:36:39;19.73;75.88
65995;HTU21D;52764;51.036;5.852;2023-07-31T03:39:05;19.71;75.85
65995;HTU21D;52764;51.036;5.852;2023-07-31T03:41:31;19.72;75.79
65995;HTU21D;52764;51.036;5.852;2023-07-31T03:43:57;19.73;75.80
65995;HTU21D;52764;51.036;5.852;2023-07-31T03:46:24;19.76;75.87
65995;HTU21D;52764;51.036;5.852;2023-07-31T03:48:50;19.77;75.67
65995;HTU21D;52764;51.036;5.852;2023-07-31T03:51:17;19.77;75.57
65995;HTU21D;52764;51.036;5.852;2023-07-31T03:53:43;19.77;75.63
65995;HTU21D;52764;51.036;5.852;2023-07-31T03:56:09;19.79;75.60
65995;HTU21D;52764;51.036;5.852;2023-07-31T03:58:35;19.76;75.61
65995;HTU21D;52764;51.036;5.852;2023-07-31T04:01:02;19.75;75.67
65995;HTU21D;52764;51.036;5.852;2023-07-31T04:03:29;19.75;75.61
65995;HTU21D;52764;51.036;5.852;2023-07-31T04:05:55;19.74;75.62
65995;HTU21D;52764;51.036;5.852;2023-07-31T04:08:22;19.71;75.66
65995;HTU21D;52764;51.036;5.852;2023-07-31T04:10:48;19.71;75.69
65995;HTU21D;52764;51.036;5.852;2023-07-31T04:13:14;19.73;75.73
65995;HTU21D;52764;51.036;5.852;2023-07-31T04:15:40;19.74;79.09
65995;HTU21D;52764;51.036;5.852;2023-07-31T04:18:06;19.75;75.48
65995;HTU21D;52764;51.036;5.852;2023-07-31T04:20:32;19.76;75.49
65995;HTU21D;52764;51.036;5.852;2023-07-31T04:22:58;19.81;75.44
65995;HTU21D;52764;51.036;5.852;2023-07-31T04:25:24;19.84;75.31
65995;HTU21D;52764;51.036;5.852;2023-07-31T04:27:49;19.85;75.05
65995;HTU21D;52764;51.036;5.852;2023-07-31T04:30:15;19.87;75.00
65995;HTU21D;52764;51.036;5.852;2023-07-31T04:32:41;19.89;74.96
65995;HTU21D;52764;51.036;5.852;2023-07-31T04:35:07;19.92;74.70
65995;HTU21D;52764;51.036;5.852;2023-07-31T04:37:32;19.94;74.68
65995;HTU21D;52764;51.036;5.852;2023-07-31T04:39:58;19.96;74.57
65995;HTU21D;52764;51.036;5.852;2023-07-31T04:42:24;19.96;74.47
65995;HTU21D;52764;51.036;5.852;2023-07-31T04:44:50;19.98;74.41
65995;HTU21D;52764;51.036;5.852;2023-07-31T04:47:16;19.99;74.38
65995;HTU21D;52764;51.036;5.852;2023-07-31T04:49:41;20.00;74.35
65995;HTU21D;52764;51.036;5.852;2023-07-31T04:52:07;19.90;74.30
65995;HTU21D;52764;51.036;5.852;2023-07-31T04:54:33;19.98;74.32
65995;HTU21D;52764;51.036;5.852;2023-07-31T04:56:58;19.98;74.25
65995;HTU21D;52764;51.036;5.852;2023-07-31T04:59:24;19.98;74.25
65995;HTU21D;52764;51.036;5.852;2023-07-31T05:01:50;19.99;74.32
65995;HTU21D;52764;51.036;5.852;2023-07-31T05:04:15;19.98;74.27
65995;HTU21D;52764;51.036;5.852;2023-07-31T05:06:42;19.91;74.40
65995;HTU21D;52764;51.036;5.852;2023-07-31T05:09:08;19.88;74.65
65995;HTU21D;52764;51.036;5.852;2023-07-31T05:11:35;19.83;74.99
65995;HTU21D;52764;51.036;5.852;2023-07-31T05:14:01;19.82;75.27
65995;HTU21D;52764;51.036;5.852;2023-07-31T05:16:26;19.80;75.53
65995;HTU21D;52764;51.036;5.852;2023-07-31T05:18:52;19.75;75.98
65995;HTU21D;52764;51.036;5.852;2023-07-31T05:21:18;19.67;76.65
65995;HTU21D;52764;51.036;5.852;2023-07-31T05:23:43;19.59;77.37
65995;HTU21D;52764;51.036;5.852;2023-07-31T05:26:09;19.59;77.84
65995;HTU21D;52764;51.036;5.852;2023-07-31T05:28:36;19.58;77.95
65995;HTU21D;52764;51.036;5.852;2023-07-31T05:31:05;19.59;77.89
65995;HTU21D;52764;51.036;5.852;2023-07-31T05:33:32;19.58;77.81
65995;HTU21D;52764;51.036;5.852;2023-07-31T05:35:58;19.58;77.87
65995;HTU21D;52764;51.036;5.852;2023-07-31T05:38:23;19.58;77.94
65995;HTU21D;52764;51.036;5.852;2023-07-31T05:40:49;19.63;78.01
65995;HTU21D;52764;51.036;5.852;2023-07-31T05:43:15;19.67;77.79
65995;HTU21D;52764;51.036;5.852;2023-07-31T05:45:42;19.71;77.76
65995;HTU21D;52764;51.036;5.852;2023-07-31T05:48:08;19.75;77.63
65995;HTU21D;52764;51.036;5.852;2023-07-31T05:50:34;19.82;77.60
65995;HTU21D;52764;51.036;5.852;2023-07-31T05:52:59;19.85;77.37
65995;HTU21D;52764;51.036;5.852;2023-07-31T05:55:25;19.90;77.08
65995;HTU21D;52764;51.036;5.852;2023-07-31T05:57:54;19.99;76.98
65995;HTU21D;52764;51.036;5.852;2023-07-31T06:00:20;20.13;76.80
65995;HTU21D;52764;51.036;5.852;2023-07-31T06:02:47;20.18;76.45
65995;HTU21D;52764;51.036;5.852;2023-07-31T06:05:13;20.24;76.28
65995;HTU21D;52764;51.036;5.852;2023-07-31T06:07:39;20.29;75.97
65995;HTU21D;52764;51.036;5.852;2023-07-31T06:10:05;20.32;75.74
65995;HTU21D;52764;51.036;5.852;2023-07-31T06:12:31;20.31;75.76
65995;HTU21D;52764;51.036;5.852;2023-07-31T06:14:57;20.35;75.55
65995;HTU21D;52764;51.036;5.852;2023-07-31T06:17:23;20.37;75.50
65995;HTU21D;52764;51.036;5.852;2023-07-31T06:19:51;20.41;75.20
65995;HTU21D;52764;51.036;5.852;2023-07-31T06:22:16;20.35;75.25
65995;HTU21D;52764;51.036;5.852;2023-07-31T06:24:42;20.34;75.36
65995;HTU21D;52764;51.036;5.852;2023-07-31T06:27:08;20.32;75.32
65995;HTU21D;52764;51.036;5.852;2023-07-31T06:29:34;20.30;75.67
65995;HTU21D;52764;51.036;5.852;2023-07-31T06:32:00;20.28;75.63
65995;HTU21D;52764;51.036;5.852;2023-07-31T06:34:26;20.17;75.98
65995;HTU21D;52764;51.036;5.852;2023-07-31T06:36:51;20.11;76.43
65995;HTU21D;52764;51.036;5.852;2023-07-31T06:39:17;19.99;76.64
65995;HTU21D;52764;51.036;5.852;2023-07-31T06:41:44;19.90;77.13
65995;HTU21D;52764;51.036;5.852;2023-07-31T06:44:10;19.82;77.33
65995;HTU21D;52764;51.036;5.852;2023-07-31T06:46:36;19.72;77.76
65995;HTU21D;52764;51.036;5.852;2023-07-31T06:49:02;19.63;78.45
65995;HTU21D;52764;51.036;5.852;2023-07-31T06:51:27;19.63;78.80
65995;HTU21D;52764;51.036;5.852;2023-07-31T06:53:53;19.57;79.17
65995;HTU21D;52764;51.036;5.852;2023-07-31T06:56:20;19.53;79.53
65995;HTU21D;52764;51.036;5.852;2023-07-31T06:58:46;19.41;79.99
65995;HTU21D;52764;51.036;5.852;2023-07-31T07:01:11;19.39;80.30
65995;HTU21D;52764;51.036;5.852;2023-07-31T07:03:37;19.37;80.44
65995;HTU21D;52764;51.036;5.852;2023-07-31T07:06:03;19.29;80.79
65995;HTU21D;52764;51.036;5.852;2023-07-31T07:08:28;19.25;80.84
65995;HTU21D;52764;51.036;5.852;2023-07-31T07:10:54;19.22;81.02
65995;HTU21D;52764;51.036;5.852;2023-07-31T07:13:20;19.23;81.21
65995;HTU21D;52764;51.036;5.852;2023-07-31T07:15:50;19.25;81.23
65995;HTU21D;52764;51.036;5.852;2023-07-31T07:18:17;19.27;81.20
65995;HTU21D;52764;51.036;5.852;2023-07-31T07:20:50;19.28;81.06
65995;HTU21D;52764;51.036;5.852;2023-07-31T07:23:16;19.27;81.05
65995;HTU21D;52764;51.036;5.852;2023-07-31T07:25:43;19.26;81.17
65995;HTU21D;52764;51.036;5.852;2023-07-31T07:28:09;19.24;81.28
65995;HTU21D;52764;51.036;5.852;2023-07-31T07:30:35;19.23;81.54
65995;HTU21D;52764;51.036;5.852;2023-07-31T07:33:01;19.21;81.63
65995;HTU21D;52764;51.036;5.852;2023-07-31T07:35:27;19.24;81.61
65995;HTU21D;52764;51.036;5.852;2023-07-31T07:37:53;19.32;81.62
65995;HTU21D;52764;51.036;5.852;2023-07-31T07:40:19;19.46;81.27
65995;HTU21D;52764;51.036;5.852;2023-07-31T07:42:45;19.61;81.07
65995;HTU21D;52764;51.036;5.852;2023-07-31T07:45:12;19.84;80.67
65995;HTU21D;52764;51.036;5.852;2023-07-31T07:47:40;20.07;80.44
65995;HTU21D;52764;51.036;5.852;2023-07-31T07:50:06;20.29;79.89
65995;HTU21D;52764;51.036;5.852;2023-07-31T07:52:32;20.47;79.40
65995;HTU21D;52764;51.036;5.852;2023-07-31T07:54:58;20.68;78.79
65995;HTU21D;52764;51.036;5.852;2023-07-31T07:57:24;20.72;78.07
65995;HTU21D;52764;51.036;5.852;2023-07-31T07:59:49;20.73;77.37
65995;HTU21D;52764;51.036;5.852;2023-07-31T08:02:15;20.72;76.32
65995;HTU21D;52764;51.036;5.852;2023-07-31T08:04:41;20.66;76.02
65995;HTU21D;52764;51.036;5.852;2023-07-31T08:07:06;20.65;76.07
65995;HTU21D;52764;51.036;5.852;2023-07-31T08:09:32;20.66;75.87
65995;HTU21D;52764;51.036;5.852;2023-07-31T08:11:58;20.68;76.09
65995;HTU21D;52764;51.036;5.852;2023-07-31T08:14:27;20.57;76.20
65995;HTU21D;52764;51.036;5.852;2023-07-31T08:16:53;20.45;76.88
65995;HTU21D;52764;51.036;5.852;2023-07-31T08:19:19;20.34;77.44
65995;HTU21D;52764;51.036;5.852;2023-07-31T08:21:45;20.27;77.82
65995;HTU21D;52764;51.036;5.852;2023-07-31T08:24:10;20.28;78.06
65995;HTU21D;52764;51.036;5.852;2023-07-31T08:26:36;20.24;78.24
65995;HTU21D;52764;51.036;5.852;2023-07-31T08:29:02;20.22;78.31
65995;HTU21D;52764;51.036;5.852;2023-07-31T08:31:27;20.28;78.32
65995;HTU21D;52764;51.036;5.852;2023-07-31T08:33:55;20.28;78.27
65995;HTU21D;52764;51.036;5.852;2023-07-31T08:36:21;20.32;78.13
65995;HTU21D;52764;51.036;5.852;2023-07-31T08:38:47;20.33;78.27
65995;HTU21D;52764;51.036;5.852;2023-07-31T08:41:13;20.45;78.08
65995;HTU21D;52764;51.036;5.852;2023-07-31T08:43:39;20.59;77.97
65995;HTU21D;52764;51.036;5.852;2023-07-31T08:46:05;20.84;77.81
65995;HTU21D;52764;51.036;5.852;2023-07-31T08:48:32;20.98;77.29
65995;HTU21D;52764;51.036;5.852;2023-07-31T08:50:58;21.00;76.86
65995;HTU21D;52764;51.036;5.852;2023-07-31T08:53:24;20.91;76.58
65995;HTU21D;52764;51.036;5.852;2023-07-31T08:55:52;20.93;76.95
65995;HTU21D;52764;51.036;5.852;2023-07-31T08:58:19;21.08;77.00
65995;HTU21D;52764;51.036;5.852;2023-07-31T09:00:46;21.31;76.59
65995;HTU21D;52764;51.036;5.852;2023-07-31T09:03:17;21.47;76.02
65995;HTU21D;52764;51.036;5.852;2023-07-31T09:05:46;21.49;75.54
65995;HTU21D;52764;51.036;5.852;2023-07-31T09:08:19;21.43;74.93
65995;HTU21D;52764;51.036;5.852;2023-07-31T09:10:46;21.33;75.21
65995;HTU21D;52764;51.036;5.852;2023-07-31T09:13:16;21.38;75.21
65995;HTU21D;52764;51.036;5.852;2023-07-31T09:15:46;21.38;75.18
65995;HTU21D;52764;51.036;5.852;2023-07-31T09:18:12;21.31;74.86
65995;HTU21D;52764;51.036;5.852;2023-07-31T09:20:39;21.30;74.78
65995;HTU21D;52764;51.036;5.852;2023-07-31T09:23:08;21.24;74.61
65995;HTU21D;52764;51.036;5.852;2023-07-31T09:25:34;21.10;74.69
65995;HTU21D;52764;51.036;5.852;2023-07-31T09:28:05;21.03;75.01
65995;HTU21D;52764;51.036;5.852;2023-07-31T09:30:32;21.06;74.97
65995;HTU21D;52764;51.036;5.852;2023-07-31T09:33:09;21.16;75.01
65995;HTU21D;52764;51.036;5.852;2023-07-31T09:35:35;21.21;74.67
65995;HTU21D;52764;51.036;5.852;2023-07-31T09:38:05;21.30;74.44
65995;HTU21D;52764;51.036;5.852;2023-07-31T09:40:33;21.46;74.05
65995;HTU21D;52764;51.036;5.852;2023-07-31T09:43:04;21.69;73.59
65995;HTU21D;52764;51.036;5.852;2023-07-31T09:45:54;21.90;72.87
65995;HTU21D;52764;51.036;5.852;2023-07-31T09:48:20;22.10;72.28
65995;HTU21D;52764;51.036;5.852;2023-07-31T09:50:48;22.43;71.37
65995;HTU21D;52764;51.036;5.852;2023-07-31T09:53:15;22.71;70.11
65995;HTU21D;52764;51.036;5.852;2023-07-31T09:55:42;23.08;69.53
65995;HTU21D;52764;51.036;5.852;2023-07-31T09:58:10;23.43;68.53
65995;HTU21D;52764;51.036;5.852;2023-07-31T10:00:37;23.71;67.49
65995;HTU21D;52764;51.036;5.852;2023-07-31T10:03:08;23.80;66.88
65995;HTU21D;52764;51.036;5.852;2023-07-31T10:05:40;23.68;66.43
65995;HTU21D;52764;51.036;5.852;2023-07-31T10:08:09;23.49;66.40
65995;HTU21D;52764;51.036;5.852;2023-07-31T10:10:42;23.45;66.85
65995;HTU21D;52764;51.036;5.852;2023-07-31T10:13:08;23.52;66.49
65995;HTU21D;52764;51.036;5.852;2023-07-31T10:15:36;23.44;66.11
65995;HTU21D;52764;51.036;5.852;2023-07-31T10:18:02;23.39;66.33
65995;HTU21D;52764;51.036;5.852;2023-07-31T10:20:31;23.30;66.19
65995;HTU21D;52764;51.036;5.852;2023-07-31T10:22:58;23.23;66.42
65995;HTU21D;52764;51.036;5.852;2023-07-31T10:25:27;23.20;66.63
65995;HTU21D;52764;51.036;5.852;2023-07-31T10:27:54;23.15;66.47
65995;HTU21D;52764;51.036;5.852;2023-07-31T10:30:25;23.26;66.58
65995;HTU21D;52764;51.036;5.852;2023-07-31T10:32:53;23.34;66.17
65995;HTU21D;52764;51.036;5.852;2023-07-31T10:35:20;23.49;65.64
65995;HTU21D;52764;51.036;5.852;2023-07-31T10:37:48;23.53;65.53
65995;HTU21D;52764;51.036;5.852;2023-07-31T10:40:25;23.64;65.46
65995;HTU21D;52764;51.036;5.852;2023-07-31T10:42:53;23.71;65.50
65995;HTU21D;52764;51.036;5.852;2023-07-31T10:48:01;23.54;64.87
65995;HTU21D;52764;51.036;5.852;2023-07-31T10:50:28;23.37;65.25
65995;HTU21D;52764;51.036;5.852;2023-07-31T10:52:55;23.34;65.96
65995;HTU21D;52764;51.036;5.852;2023-07-31T10:55:25;23.36;65.88
65995;HTU21D;52764;51.036;5.852;2023-07-31T10:57:52;23.41;65.63
65995;HTU21D;52764;51.036;5.852;2023-07-31T11:03:00;23.56;65.17
65995;HTU21D;52764;51.036;5.852;2023-07-31T11:10:45;24.30;63.94
65995;HTU21D;52764;51.036;5.852;2023-07-31T11:13:11;24.38;63.81
65995;HTU21D;52764;51.036;5.852;2023-07-31T11:15:37;24.40;64.00
65995;HTU21D;52764;51.036;5.852;2023-07-31T11:18:03;24.36;64.69
65995;HTU21D;52764;51.036;5.852;2023-07-31T11:20:34;24.31;65.02
65995;HTU21D;52764;51.036;5.852;2023-07-31T11:23:07;24.16;65.04
65995;HTU21D;52764;51.036;5.852;2023-07-31T11:25:34;23.95;65.25
65995;HTU21D;52764;51.036;5.852;2023-07-31T11:28:10;23.71;65.78
65995;HTU21D;52764;51.036;5.852;2023-07-31T11:30:38;23.56;66.31
65995;HTU21D;52764;51.036;5.852;2023-07-31T11:33:05;23.44;67.14
65995;HTU21D;52764;51.036;5.852;2023-07-31T11:35:40;23.25;68.34
65995;HTU21D;52764;51.036;5.852;2023-07-31T11:38:07;23.12;69.50
65995;HTU21D;52764;51.036;5.852;2023-07-31T11:40:41;23.05;69.78
65995;HTU21D;52764;51.036;5.852;2023-07-31T11:43:07;22.96;70.04
65995;HTU21D;52764;51.036;5.852;2023-07-31T11:45:33;22.91;70.57
65995;HTU21D;52764;51.036;5.852;2023-07-31T11:48:01;22.91;70.77
65995;HTU21D;52764;51.036;5.852;2023-07-31T11:50:27;22.97;70.82
65995;HTU21D;52764;51.036;5.852;2023-07-31T11:52:59;23.02;70.31
65995;HTU21D;52764;51.036;5.852;2023-07-31T11:55:26;23.17;70.47
65995;HTU21D;52764;51.036;5.852;2023-07-31T11:57:54;23.34;70.01
65995;HTU21D;52764;51.036;5.852;2023-07-31T12:00:21;23.57;69.16
65995;HTU21D;52764;51.036;5.852;2023-07-31T12:02:47;23.96;68.34
65995;HTU21D;52764;51.036;5.852;2023-07-31T12:05:13;24.41;67.32
65995;HTU21D;52764;51.036;5.852;2023-07-31T12:07:46;24.65;66.01
65995;HTU21D;52764;51.036;5.852;2023-07-31T12:10:31;24.89;64.90
65995;HTU21D;52764;51.036;5.852;2023-07-31T12:13:12;25.19;63.69
65995;HTU21D;52764;51.036;5.852;2023-07-31T12:15:45;25.22;62.70
65995;HTU21D;52764;51.036;5.852;2023-07-31T12:18:13;25.15;62.57
65995;HTU21D;52764;51.036;5.852;2023-07-31T12:20:44;25.08;62.47
65995;HTU21D;52764;51.036;5.852;2023-07-31T12:23:17;25.17;62.00
65995;HTU21D;52764;51.036;5.852;2023-07-31T12:25:43;25.34;61.73
65995;HTU21D;52764;51.036;5.852;2023-07-31T12:28:09;25.45;61.16
65995;HTU21D;52764;51.036;5.852;2023-07-31T12:30:40;25.44;60.35
65995;HTU21D;52764;51.036;5.852;2023-07-31T12:35:43;25.53;60.38
65995;HTU21D;52764;51.036;5.852;2023-07-31T12:38:09;25.56;60.51
65995;HTU21D;52764;51.036;5.852;2023-07-31T12:40:40;25.62;59.98
65995;HTU21D;52764;51.036;5.852;2023-07-31T12:43:07;25.73;59.60
65995;HTU21D;52764;51.036;5.852;2023-07-31T12:45:33;25.83;59.27
65995;HTU21D;52764;51.036;5.852;2023-07-31T12:48:00;25.99;58.76
65995;HTU21D;52764;51.036;5.852;2023-07-31T12:50:26;26.12;58.51
65995;HTU21D;52764;51.036;5.852;2023-07-31T12:52:53;26.17;57.78
65995;HTU21D;52764;51.036;5.852;2023-07-31T12:55:21;26.25;57.74
65995;HTU21D;52764;51.036;5.852;2023-07-31T12:57:47;26.32;57.29
65995;HTU21D;52764;51.036;5.852;2023-07-31T13:00:13;26.34;57.18
65995;HTU21D;52764;51.036;5.852;2023-07-31T13:02:39;26.38;57.06
65995;HTU21D;52764;51.036;5.852;2023-07-31T13:05:04;26.43;56.83
65995;HTU21D;52764;51.036;5.852;2023-07-31T13:07:30;26.57;56.64
65995;HTU21D;52764;51.036;5.852;2023-07-31T13:09:56;26.89;56.23
65995;HTU21D;52764;51.036;5.852;2023-07-31T13:12:22;27.07;55.08
65995;HTU21D;52764;51.036;5.852;2023-07-31T13:14:47;27.06;54.47
65995;HTU21D;52764;51.036;5.852;2023-07-31T13:17:13;26.98;54.46
65995;HTU21D;52764;51.036;5.852;2023-07-31T13:19:39;26.75;54.57
65995;HTU21D;52764;51.036;5.852;2023-07-31T13:22:05;26.51;55.00
65995;HTU21D;52764;51.036;5.852;2023-07-31T13:24:30;26.20;55.52
65995;HTU21D;52764;51.036;5.852;2023-07-31T13:26:57;25.84;56.13
65995;HTU21D;52764;51.036;5.852;2023-07-31T13:29:22;25.54;57.09
65995;HTU21D;52764;51.036;5.852;2023-07-31T13:31:49;25.27;57.68
65995;HTU21D;52764;51.036;5.852;2023-07-31T13:34:15;25.74;58.51
65995;HTU21D;52764;51.036;5.852;2023-07-31T13:36:41;24.90;59.28
65995;HTU21D;52764;51.036;5.852;2023-07-31T13:39:07;24.77;59.77
65995;HTU21D;52764;51.036;5.852;2023-07-31T13:41:33;24.68;59.92
65995;HTU21D;52764;51.036;5.852;2023-07-31T13:43:58;24.63;60.18
65995;HTU21D;52764;51.036;5.852;2023-07-31T13:46:24;24.58;60.06
65995;HTU21D;52764;51.036;5.852;2023-07-31T13:48:51;24.51;60.51
65995;HTU21D;52764;51.036;5.852;2023-07-31T13:51:23;24.51;60.62
65995;HTU21D;52764;51.036;5.852;2023-07-31T13:53:49;24.54;60.50
65995;HTU21D;52764;51.036;5.852;2023-07-31T13:56:15;24.57;60.47
65995;HTU21D;52764;51.036;5.852;2023-07-31T13:58:41;24.60;60.50
65995;HTU21D;52764;51.036;5.852;2023-07-31T14:01:06;24.50;60.85
65995;HTU21D;52764;51.036;5.852;2023-07-31T14:03:32;24.41;61.44
65995;HTU21D;52764;51.036;5.852;2023-07-31T14:05:58;24.48;61.34
65995;HTU21D;52764;51.036;5.852;2023-07-31T14:08:24;24.63;60.84
65995;HTU21D;52764;51.036;5.852;2023-07-31T14:10:49;24.78;60.16
65995;HTU21D;52764;51.036;5.852;2023-07-31T14:13:15;24.98;59.61
65995;HTU21D;52764;51.036;5.852;2023-07-31T14:15:42;25.09;58.84
65995;HTU21D;52764;51.036;5.852;2023-07-31T14:18:10;25.17;58.83
65995;HTU21D;52764;51.036;5.852;2023-07-31T14:20:36;25.30;58.61
65995;HTU21D;52764;51.036;5.852;2023-07-31T14:23:02;25.36;58.57
65995;HTU21D;52764;51.036;5.852;2023-07-31T14:25:28;25.31;58.14
65995;HTU21D;52764;51.036;5.852;2023-07-31T14:27:54;25.21;58.15
65995;HTU21D;52764;51.036;5.852;2023-07-31T14:30:20;25.06;58.14
65995;HTU21D;52764;51.036;5.852;2023-07-31T14:32:46;24.82;58.54
65995;HTU21D;52764;51.036;5.852;2023-07-31T14:35:12;24.75;58.93
65995;HTU21D;52764;51.036;5.852;2023-07-31T14:37:44;24.73;59.38
65995;HTU21D;52764;51.036;5.852;2023-07-31T14:40:11;24.54;59.38
65995;HTU21D;52764;51.036;5.852;2023-07-31T14:42:39;24.41;59.90
65995;HTU21D;52764;51.036;5.852;2023-07-31T14:45:06;24.35;60.03
65995;HTU21D;52764;51.036;5.852;2023-07-31T14:47:33;24.27;60.30
65995;HTU21D;52764;51.036;5.852;2023-07-31T14:49:59;24.27;60.51
65995;HTU21D;52764;51.036;5.852;2023-07-31T14:52:26;24.24;60.64
65995;HTU21D;52764;51.036;5.852;2023-07-31T14:54:52;24.14;60.96
65995;HTU21D;52764;51.036;5.852;2023-07-31T14:57:17;24.06;61.28
65995;HTU21D;52764;51.036;5.852;2023-07-31T14:59:44;24.05;61.67
65995;HTU21D;52764;51.036;5.852;2023-07-31T15:02:10;23.96;62.15
65995;HTU21D;52764;51.036;5.852;2023-07-31T15:04:36;23.79;63.02
65995;HTU21D;52764;51.036;5.852;2023-07-31T15:07:03;23.68;63.77
65995;HTU21D;52764;51.036;5.852;2023-07-31T15:09:29;23.57;64.82
65995;HTU21D;52764;51.036;5.852;2023-07-31T15:11:56;23.43;65.27
65995;HTU21D;52764;51.036;5.852;2023-07-31T15:14:22;23.31;66.01
65995;HTU21D;52764;51.036;5.852;2023-07-31T15:16:48;23.25;66.58
65995;HTU21D;52764;51.036;5.852;2023-07-31T15:19:15;23.25;66.91
65995;HTU21D;52764;51.036;5.852;2023-07-31T15:21:40;23.28;67.26
65995;HTU21D;52764;51.036;5.852;2023-07-31T15:24:06;23.31;67.14
65995;HTU21D;52764;51.036;5.852;2023-07-31T15:26:32;23.28;66.98
65995;HTU21D;52764;51.036;5.852;2023-07-31T15:29:03;23.25;67.17
65995;HTU21D;52764;51.036;5.852;2023-07-31T15:31:34;23.24;67.14